Airfield :
LOGIN :

Register | Disclaimer

   EN    FR    IT 

 










Legend :    VFR   Marginal VFR   IFR   Intensive IFR   Very Intensive IFR
Visi :
Ceiling :
>= 8 km
>= 3000ft
5 to 8 km
1000 to 3000 ft
1500m to 5 km
500 to 1000 ft
800 to 1500m
200 to 500 ft
< 800m
< 200 ft
Symbols :   Thunderstorms  Fog  Heavy snow  Heavy precipitations  Wind > 20 kt
SIGMETs :     Misc.  Thunderstorms  Icing  Turbulence  Mountain Waves  Volcanic Ashes






- Airport Elevation : 202 ft
- IATA code : LGW


EGKK - London Gatwick

CURRENT METAR :
  • 100220Z VRB03KT CAVOK 20/17 Q1014

EXPIRED METARs :
  • 100150Z 04004KT CAVOK 21/18 Q1014
  • 100120Z 06003KT CAVOK 20/17 Q1014
  • 100050Z 03004KT CAVOK 21/18 Q1014
  • 100020Z VRB03KT CAVOK 21/18 Q1015
  • 092350Z 07004KT CAVOK 21/17 Q1015
  • 092320Z 05006KT CAVOK 22/18 Q1015

TAF TAF EGKK
Valid from the 10 at 00:00 until the 11 at 06:00 UTC


092254Z 1000/1106 05006KT CAVOK
PROB40 1010/1019 15010KT
PROB30
TEMPO 1012/1106 7000 SHRA



MET'MAP, your aeronautical weather chart ! - Copyright ORBIFLY December 2007 - Disclaimer

ORBIFLY MET'MAP TEAM :

Programming & Development : Alexandra Zaïnal
Concept & original design : Baudouin d'Aumeries
Assistance for programming : Marc-Olivier Méhu
Technical & hardware support : Manuel Goepfert

Contact : metmap@orbifly.com




SOURCES & CREDITS :

   NOAA